Time;durP1;ratioP1;P1;durP2;ratioP2;P2;SDS_P1;SDS_P2;PMS_P1;PMS_P2;Temp;Humidity;BMP_temperature;BMP_pressure;BME280_temperature;BME280_humidity;BME280_pressure;Samples;Min_cycle;Max_cycle;Signal;HPM_P1;HPM_P2
2021/09/10 00:01:28;;;;;;;21.40;14.63;;;;;;;14.97;62.60;99892.89;1727756;82;21030;-40
2021/09/10 00:04:00;;;;;;;23.12;15.10;;;;;;;15.01;62.59;99896.44;1745213;80;21001;-40
2021/09/10 00:06:23;;;;;;;20.65;14.83;;;;;;;14.99;62.62;99891.37;1773423;80;21042;-41
2021/09/10 00:08:50;;;;;;;20.70;14.80;;;;;;;14.99;62.54;99892.73;1781622;79;21057;-40
2021/09/10 00:11:17;;;;;;;21.73;15.08;;;;;;;14.98;62.42;99889.80;1754038;80;21109;-40
2021/09/10 00:13:45;;;;;;;19.17;14.58;;;;;;;14.96;62.38;99889.98;1776720;80;20887;-40
2021/09/10 00:16:11;;;;;;;17.85;14.35;;;;;;;14.93;62.48;99890.71;1781340;80;20961;-40
2021/09/10 00:18:38;;;;;;;20.37;15.15;;;;;;;14.91;62.44;99897.14;1758603;80;21088;-40
2021/09/10 00:21:05;;;;;;;24.20;14.55;;;;;;;14.88;62.40;99890.47;1757007;80;21574;-40
2021/09/10 00:23:31;;;;;;;19.92;15.23;;;;;;;14.83;62.30;99886.72;1785509;80;21096;-40
2021/09/10 00:25:58;;;;;;;20.75;15.58;;;;;;;14.79;62.38;99889.99;1773060;79;21516;-40
2021/09/10 00:28:25;;;;;;;21.05;13.85;;;;;;;14.74;62.50;99891.70;1767116;80;20958;-40
2021/09/10 00:30:53;;;;;;;19.87;14.35;;;;;;;14.74;62.46;99888.97;1747878;80;21012;-40
2021/09/10 00:33:19;;;;;;;18.30;13.88;;;;;;;14.76;62.33;99896.21;1756503;81;21009;-40
2021/09/10 00:35:47;;;;;;;19.95;15.20;;;;;;;14.78;62.37;99903.43;1782271;80;21148;-41
2021/09/10 00:38:13;;;;;;;19.95;15.05;;;;;;;14.75;62.46;99890.55;1785445;79;20996;-40
2021/09/10 00:40:40;;;;;;;20.77;14.50;;;;;;;14.73;62.54;99885.45;1750863;80;20977;-40
2021/09/10 00:43:06;;;;;;;19.45;14.95;;;;;;;14.73;62.55;99890.12;1777411;80;21516;-40
2021/09/10 00:45:33;;;;;;;23.47;14.68;;;;;;;14.69;62.64;99890.09;1747449;80;21084;-40
2021/09/10 00:47:59;;;;;;;23.60;15.43;;;;;;;14.66;62.67;99890.06;1757169;80;21903;-40
2021/09/10 00:50:26;;;;;;;21.20;15.28;;;;;;;14.63;62.77;99890.78;1767222;80;20996;-40
2021/09/10 00:52:54;;;;;;;23.10;15.18;;;;;;;14.57;62.93;99888.20;1747056;81;20971;-40
2021/09/10 00:55:26;;;;;;;21.00;14.05;;;;;;;14.46;63.27;99883.98;1757156;80;21011;-40
2021/09/10 00:57:53;;;;;;;19.40;13.58;;;;;;;14.38;63.50;99892.47;1774484;80;21049;-40
2021/09/10 01:00:20;;;;;;;19.45;14.20;;;;;;;14.39;63.63;99889.92;1744327;80;21985;-40
2021/09/10 01:02:47;;;;;;;20.77;14.85;;;;;;;14.41;63.72;99895.80;1772312;79;21001;-40
2021/09/10 01:05:13;;;;;;;22.58;14.98;;;;;;;14.36;63.87;99896.92;1731742;81;22054;-40
2021/09/10 01:07:41;;;;;;;20.10;14.43;;;;;;;14.37;63.91;99897.71;1750099;80;21006;-40
2021/09/10 01:10:09;;;;;;;19.55;14.07;;;;;;;14.38;63.71;99896.56;1773750;80;21069;-40
2021/09/10 01:12:36;;;;;;;18.70;13.55;;;;;;;14.35;63.60;99894.73;1771376;80;21099;-40
2021/09/10 01:15:04;;;;;;;20.60;14.60;;;;;;;14.33;63.55;99897.61;1773620;80;21033;-40
2021/09/10 01:17:30;;;;;;;21.07;13.75;;;;;;;14.30;63.51;99906.55;1761124;80;20996;-40
2021/09/10 01:19:58;;;;;;;22.13;15.35;;;;;;;14.27;63.44;99899.91;1736181;80;20989;-40
2021/09/10 01:22:24;;;;;;;19.50;13.60;;;;;;;14.24;63.37;99903.36;1729567;80;20986;-40
2021/09/10 01:25:12;;;;;;;16.93;13.15;;;;;;;14.25;63.25;99899.48;1753050;80;22025;-40
2021/09/10 01:27:43;;;;;;;20.77;14.47;;;;;;;14.29;63.19;99900.88;1749552;80;20973;-40
2021/09/10 01:30:14;;;;;;;20.08;14.47;;;;;;;14.30;63.25;99889.61;1750385;80;21666;-40
2021/09/10 01:32:40;;;;;;;21.65;15.75;;;;;;;14.30;63.27;99892.91;1770663;80;21624;-40
2021/09/10 01:35:08;;;;;;;23.87;15.35;;;;;;;14.30;63.33;99886.09;1771726;80;21045;-40
2021/09/10 01:37:34;;;;;;;22.60;16.15;;;;;;;14.30;63.33;99886.88;1759201;80;21784;-40
2021/09/10 01:40:02;;;;;;;24.60;16.20;;;;;;;14.29;63.13;99883.94;1772902;80;21298;-40
2021/09/10 01:42:29;;;;;;;22.77;16.20;;;;;;;14.26;63.12;99881.97;1772524;80;21552;-40
2021/09/10 01:44:55;;;;;;;25.05;16.40;;;;;;;14.24;63.18;99883.48;1753080;80;21031;-40
2021/09/10 01:47:22;;;;;;;20.52;15.40;;;;;;;14.22;63.11;99881.72;1757780;80;21025;-40
2021/09/10 01:49:48;;;;;;;22.27;15.88;;;;;;;14.17;63.13;99888.28;1756638;80;21112;-40
2021/09/10 01:52:15;;;;;;;19.92;14.83;;;;;;;14.13;63.20;99882.00;1768820;80;20998;-40
2021/09/10 01:54:41;;;;;;;20.50;14.63;;;;;;;14.13;63.33;99883.38;1760576;80;20958;-40
2021/09/10 01:57:08;;;;;;;21.25;14.63;;;;;;;14.16;63.25;99882.62;1742991;82;21030;-40
2021/09/10 01:59:35;;;;;;;20.72;13.30;;;;;;;14.17;63.11;99874.65;1743247;80;21089;-40
2021/09/10 02:02:03;;;;;;;21.75;14.30;;;;;;;14.14;63.05;99876.73;1742831;82;21948;-40
2021/09/10 02:04:29;;;;;;;21.25;14.18;;;;;;;14.12;63.20;99883.16;1763019;80;21005;-40
2021/09/10 02:06:55;;;;;;;21.02;14.70;;;;;;;14.11;63.22;99878.85;1742932;82;21018;-40
2021/09/10 02:09:22;;;;;;;22.95;15.20;;;;;;;14.11;63.37;99882.94;1762767;80;21030;-40
2021/09/10 02:11:49;;;;;;;23.00;15.20;;;;;;;14.10;63.48;99879.21;1745653;80;21536;-40
2021/09/10 02:14:16;;;;;;;20.97;14.40;;;;;;;14.06;63.55;99875.09;1746047;80;21129;-40
2021/09/10 02:16:42;;;;;;;20.30;15.40;;;;;;;14.03;63.51;99886.74;1755453;80;21059;-40
2021/09/10 02:19:09;;;;;;;22.00;13.68;;;;;;;13.98;63.54;99885.70;1713640;83;21028;-40
2021/09/10 02:23:02;;;;;;;22.42;14.07;;;;;;;14.06;63.33;99883.84;1809604;78;22384;-40
2021/09/10 02:25:28;;;;;;;22.82;14.85;;;;;;;13.98;63.44;99874.00;1761993;80;21562;-40
2021/09/10 02:27:55;;;;;;;21.93;14.68;;;;;;;13.98;63.58;99880.81;1753968;80;21225;-40
2021/09/10 02:30:21;;;;;;;20.65;15.13;;;;;;;13.97;63.50;99877.30;1748349;82;21530;-40
2021/09/10 02:32:48;;;;;;;21.25;15.98;;;;;;;13.98;63.44;99878.09;1748427;82;20961;-40
2021/09/10 02:35:15;;;;;;;22.00;15.28;;;;;;;13.96;63.37;99883.12;1757641;80;20981;-40
2021/09/10 02:37:41;;;;;;;20.15;14.50;;;;;;;13.91;63.43;99881.50;1778027;80;21528;-40
2021/09/10 02:40:10;;;;;;;21.80;15.20;;;;;;;13.87;63.44;99879.30;1756785;81;21783;-40
2021/09/10 02:42:36;;;;;;;24.20;15.50;;;;;;;13.85;63.56;99881.60;1756603;81;20968;-40
2021/09/10 02:45:04;;;;;;;20.10;14.60;;;;;;;13.80;63.66;99884.64;1766443;80;20953;-40
2021/09/10 02:47:31;;;;;;;20.88;14.35;;;;;;;13.79;63.57;99883.88;1780106;80;20980;-40
2021/09/10 02:49:57;;;;;;;20.15;14.53;;;;;;;13.83;63.50;99881.98;1787954;80;21795;-40
2021/09/10 02:52:24;;;;;;;21.62;15.05;;;;;;;13.85;63.49;99885.69;1756699;80;21099;-40
2021/09/10 02:54:52;;;;;;;22.75;14.93;;;;;;;13.82;63.49;99877.69;1758944;80;21063;-40
2021/09/10 02:57:20;;;;;;;25.48;15.72;;;;;;;13.81;63.53;99872.59;1766906;80;21606;-40
2021/09/10 02:59:47;;;;;;;21.62;16.12;;;;;;;13.79;63.47;99874.92;1772724;80;21555;-40
2021/09/10 03:02:13;;;;;;;23.20;16.97;;;;;;;13.76;63.40;99874.27;1756634;81;21028;-40
2021/09/10 03:04:44;;;;;;;23.22;16.87;;;;;;;13.72;63.43;99878.89;1758094;80;21140;-40
2021/09/10 03:07:11;;;;;;;;;;;;;;;13.68;63.79;99870.67;1790333;79;21456;-40
2021/09/10 03:09:38;;;;;;;23.35;16.32;;;;;;;13.32;63.83;99823.05;1768102;80;20690;-40
2021/09/10 03:12:05;;;;;;;22.25;15.50;;;;;;;13.49;64.03;99879.73;1768883;80;21099;-40
2021/09/10 03:14:32;;;;;;;22.60;15.78;;;;;;;13.51;64.04;99877.23;1755759;79;21092;-40
2021/09/10 03:16:58;;;;;;;24.47;16.95;;;;;;;13.55;64.02;99868.53;1726741;81;21152;-40
2021/09/10 03:19:29;;;;;;;23.12;16.87;;;;;;;13.60;63.86;99873.67;1747721;80;21017;-40
2021/09/10 03:21:55;;;;;;;;;;;;;;;13.60;63.75;99870.38;1753741;81;21536;-40
2021/09/10 03:24:22;;;;;;;23.85;17.40;;;;;;;13.60;63.66;99872.31;1756970;80;20155;-40
2021/09/10 03:26:50;;;;;;;25.92;18.37;;;;;;;13.48;63.92;99877.38;1743066;80;21108;-40
2021/09/10 03:29:18;;;;;;;23.67;17.40;;;;;;;13.48;63.92;99874.65;1728517;80;21109;-40
2021/09/10 03:31:45;;;;;;;25.62;17.82;;;;;;;13.47;63.90;99867.62;1751938;80;21005;-40
2021/09/10 03:34:12;;;;;;;27.52;18.52;;;;;;;13.45;63.90;99874.03;1767168;80;20997;-40
2021/09/10 03:36:40;;;;;;;27.65;18.90;;;;;;;13.42;63.93;99878.25;1746685;80;21005;-40
2021/09/10 03:39:06;;;;;;;26.97;17.30;;;;;;;13.39;63.96;99876.84;1750976;80;21069;-40
2021/09/10 03:41:33;;;;;;;27.40;17.05;;;;;;;13.39;63.92;99883.08;1753977;80;21123;-40
2021/09/10 03:43:59;;;;;;;27.15;19.12;;;;;;;13.42;63.90;99881.55;1756053;80;21657;-40
2021/09/10 03:46:27;;;;;;;28.05;18.85;;;;;;;13.45;63.88;99884.92;1753493;80;21396;-40
2021/09/10 03:48:54;;;;;;;25.72;18.77;;;;;;;13.43;64.00;99888.00;1741158;80;21009;-39
2021/09/10 03:51:20;;;;;;;30.75;19.77;;;;;;;13.43;63.98;99888.00;1745495;80;21023;-40
2021/09/10 03:53:48;;;;;;;30.43;19.02;;;;;;;13.45;64.06;99885.71;1742397;80;21026;-40
2021/09/10 03:56:15;;;;;;;27.42;19.02;;;;;;;13.47;63.96;99897.58;1742301;80;20954;-40
2021/09/10 03:58:44;;;;;;;25.52;18.60;;;;;;;13.45;63.74;99892.52;1742203;80;20930;-40
2021/09/10 04:01:12;;;;;;;21.17;13.00;;;;;;;13.45;63.73;99893.09;1741510;80;21578;-40
2021/09/10 04:03:40;;;;;;;27.77;19.55;;;;;;;13.42;63.98;99894.59;1765369;80;21523;-40
2021/09/10 04:06:09;;;;;;;25.32;18.32;;;;;;;13.40;64.02;99891.47;1754299;80;21794;-40
2021/09/10 04:08:39;;;;;;;23.73;18.45;;;;;;;13.43;64.01;99898.11;1771035;80;21631;-40
2021/09/10 04:11:07;;;;;;;26.42;19.77;;;;;;;13.48;64.06;99895.08;1753663;80;21896;-40
2021/09/10 04:13:34;;;;;;;28.40;20.27;;;;;;;13.52;63.96;99899.21;1770733;80;20962;-40
2021/09/10 04:16:01;;;;;;;32.58;22.58;;;;;;;13.54;64.07;99897.70;1727284;80;21088;-40
2021/09/10 04:18:28;;;;;;;31.02;22.42;;;;;;;13.56;64.01;99891.88;1745128;80;21143;-40
2021/09/10 04:20:55;;;;;;;30.97;22.50;;;;;;;13.61;64.08;99891.56;1751543;80;20922;-40
2021/09/10 04:23:21;;;;;;;33.25;22.55;;;;;;;13.65;64.17;99888.34;1762465;80;21599;-40
2021/09/10 04:25:50;;;;;;;31.02;22.50;;;;;;;13.66;64.17;99891.25;1768338;80;21511;-40
2021/09/10 04:28:16;;;;;;;31.33;22.87;;;;;;;13.69;64.11;99891.33;1754776;81;21065;-40
2021/09/10 04:30:43;;;;;;;34.13;23.45;;;;;;;13.67;63.91;99885.44;1755935;80;21170;-40
2021/09/10 04:33:10;;;;;;;32.05;23.32;;;;;;;13.64;63.84;99888.91;1756282;81;21024;-40
2021/09/10 04:35:36;;;;;;;32.10;22.48;;;;;;;13.67;63.73;99890.89;1756046;81;21500;-40
2021/09/10 04:38:03;;;;;;;30.68;21.73;;;;;;;13.71;63.47;99890.94;1756040;81;21567;-40
2021/09/10 04:40:30;;;;;;;36.93;23.62;;;;;;;13.73;63.41;99889.44;1756117;81;21647;-40
2021/09/10 04:42:57;;;;;;;36.00;22.67;;;;;;;13.70;63.37;99890.15;1756023;81;21119;-40
2021/09/10 04:45:23;;;;;;;31.68;22.48;;;;;;;13.68;63.39;99890.32;1755767;81;21584;-40
2021/09/10 04:47:50;;;;;;;36.45;23.20;;;;;;;13.68;63.35;99894.41;1755953;81;21009;-40
2021/09/10 04:50:16;;;;;;;33.10;23.83;;;;;;;13.68;63.31;99884.88;1756035;81;21016;-40
2021/09/10 04:52:43;;;;;;;33.25;23.12;;;;;;;13.66;63.32;99888.53;1741533;80;21012;-40
2021/09/10 04:55:11;;;;;;;34.18;23.25;;;;;;;13.66;63.60;99888.53;1745413;80;21839;-40
2021/09/10 04:57:39;;;;;;;33.67;23.60;;;;;;;13.67;63.62;99884.66;1749158;80;21021;-40
2021/09/10 05:00:07;;;;;;;31.68;22.15;;;;;;;13.69;63.80;99890.53;1714035;82;20979;-40
2021/09/10 05:02:34;;;;;;;28.92;21.27;;;;;;;13.74;63.91;99887.50;1706286;83;21056;-40
2021/09/10 05:05:00;;;;;;;30.25;20.80;;;;;;;13.85;63.96;99883.75;1694750;83;21100;-40
2021/09/10 05:07:29;;;;;;;32.73;22.07;;;;;;;13.94;64.04;99880.17;1699852;83;21246;-40
2021/09/10 05:09:56;;;;;;;28.80;20.90;;;;;;;14.02;64.13;99881.64;1698724;82;21068;-40
2021/09/10 05:12:22;;;;;;;31.50;21.52;;;;;;;14.06;64.20;99877.02;1694832;82;20948;-40
2021/09/10 05:14:53;;;;;;;33.40;21.97;;;;;;;14.12;64.25;99883.16;1698378;82;21001;-40
2021/09/10 05:17:20;;;;;;;30.00;21.95;;;;;;;14.21;64.44;99879.56;1698184;82;21650;-40
2021/09/10 05:19:48;;;;;;;30.40;22.07;;;;;;;14.29;64.71;99883.16;1692315;83;21021;-40
2021/09/10 05:22:15;;;;;;;30.00;20.95;;;;;;;14.35;65.07;99885.19;1696165;82;20962;-40
2021/09/10 05:24:42;;;;;;;27.27;19.45;;;;;;;14.46;65.31;99882.62;1694137;84;21025;-40
2021/09/10 05:27:09;;;;;;;26.80;20.23;;;;;;;14.29;65.23;99836.22;1692850;83;21602;-40
2021/09/10 05:29:35;;;;;;;29.20;20.35;;;;;;;14.76;65.10;99890.75;1694429;82;21084;-40
2021/09/10 05:32:02;;;;;;;28.95;19.67;;;;;;;14.87;65.07;99892.98;1694002;84;21141;-40
2021/09/10 05:34:30;;;;;;;27.58;19.05;;;;;;;14.98;64.95;99884.33;1693914;82;21009;-40
2021/09/10 05:36:57;;;;;;;25.90;19.40;;;;;;;15.12;64.93;99886.41;1693730;82;21407;-40
2021/09/10 05:39:24;;;;;;;27.10;19.12;;;;;;;15.23;64.76;99893.55;1695644;84;21016;-40
2021/09/10 05:41:50;;;;;;;25.05;17.17;;;;;;;15.38;64.69;99889.56;1694904;82;21539;-40
2021/09/10 05:44:18;;;;;;;24.50;16.37;;;;;;;15.53;64.26;99895.37;1709582;82;21966;-40
2021/09/10 05:46:45;;;;;;;25.05;16.73;;;;;;;15.72;63.77;99894.33;1695771;82;21595;-40
2021/09/10 05:49:12;;;;;;;27.65;16.65;;;;;;;15.89;63.58;99891.69;1692282;84;21617;-40
2021/09/10 05:51:38;;;;;;;32.00;16.67;;;;;;;16.02;63.16;99888.83;1697222;84;21092;-40
2021/09/10 05:54:05;;;;;;;18.40;12.60;;;;;;;16.17;62.89;99888.92;1693762;84;20986;-40
2021/09/10 05:56:32;;;;;;;18.70;12.90;;;;;;;16.30;61.29;99882.73;1704088;82;21159;-40
2021/09/10 05:58:59;;;;;;;16.55;12.05;;;;;;;16.42;59.52;99880.21;1695169;82;21029;-40
2021/09/10 06:01:26;;;;;;;18.50;13.60;;;;;;;16.52;59.03;99888.46;1714119;82;21033;-40
2021/09/10 06:03:54;;;;;;;17.40;12.00;;;;;;;16.63;58.81;99881.69;1695724;82;21040;-40
2021/09/10 06:06:21;;;;;;;21.73;12.80;;;;;;;16.71;58.08;99883.27;1695129;83;21201;-40
2021/09/10 06:08:49;;;;;;;19.52;13.08;;;;;;;16.78;57.63;99890.14;1707926;82;20992;-40
2021/09/10 06:11:16;;;;;;;21.12;12.55;;;;;;;16.85;57.90;99894.24;1683645;84;21026;-40
2021/09/10 06:13:44;;;;;;;18.80;11.63;;;;;;;16.93;57.92;99888.21;1744873;80;21075;-40
2021/09/10 06:16:11;;;;;;;17.12;10.08;;;;;;;17.01;56.73;99891.73;1744784;80;21016;-40
2021/09/10 06:18:37;;;;;;;17.32;11.15;;;;;;;17.07;56.20;99894.29;1744410;82;21483;-40
2021/09/10 06:21:04;;;;;;;16.48;10.88;;;;;;;17.12;55.70;99887.84;1745493;80;21091;-40
2021/09/10 06:23:31;;;;;;;16.20;11.08;;;;;;;17.22;55.60;99898.61;1745342;80;20972;-40
2021/09/10 06:25:59;;;;;;;18.50;11.78;;;;;;;17.29;56.09;99899.97;1744750;80;21015;-40
2021/09/10 06:28:25;;;;;;;19.75;12.35;;;;;;;17.38;56.36;99897.62;1740878;80;21055;-40
2021/09/10 06:30:52;;;;;;;20.15;11.68;;;;;;;17.48;56.46;99902.90;1744217;80;21038;-40
2021/09/10 06:33:18;;;;;;;18.77;11.70;;;;;;;17.58;56.28;99908.97;1741005;80;21137;-40
2021/09/10 06:35:46;;;;;;;18.42;11.93;;;;;;;17.67;55.76;99914.28;1740977;82;20929;-40
2021/09/10 06:38:13;;;;;;;13.83;10.55;;;;;;;17.79;56.05;99912.52;1741570;80;21068;-40
2021/09/10 06:40:40;;;;;;;14.15;10.70;;;;;;;17.92;55.54;99914.83;1741922;80;20956;-41
2021/09/10 06:43:06;;;;;;;15.48;9.73;;;;;;;18.04;55.05;99918.54;1749490;80;21014;-40
2021/09/10 06:45:33;;;;;;;20.70;9.98;;;;;;;18.18;54.44;99922.62;1750027;80;21853;-41
2021/09/10 06:47:59;;;;;;;15.18;10.63;;;;;;;18.32;53.81;99919.83;1748829;80;20962;-40
2021/09/10 06:50:26;;;;;;;15.23;10.00;;;;;;;18.43;53.56;99910.97;1758059;80;21020;-40
2021/09/10 06:52:53;;;;;;;17.73;10.18;;;;;;;18.55;53.64;99917.40;1750113;80;21052;-40
2021/09/10 06:55:20;;;;;;;13.83;10.05;;;;;;;18.70;53.81;99920.08;1747030;80;21775;-41
2021/09/10 06:57:47;;;;;;;13.28;9.23;;;;;;;18.85;53.33;99917.45;1749459;80;21989;-40
2021/09/10 07:00:15;;;;;;;14.03;8.33;;;;;;;18.98;53.04;99913.04;1745347;80;21089;-41
2021/09/10 07:02:42;;;;;;;13.78;8.25;;;;;;;19.14;51.95;99916.08;1742405;80;20969;-40
2021/09/10 07:05:10;;;;;;;12.75;7.20;;;;;;;19.28;51.67;99917.35;1738534;80;21120;-40
2021/09/10 07:07:36;;;;;;;13.90;7.10;;;;;;;19.41;50.36;99914.30;1736733;80;21088;-40
2021/09/10 07:10:05;;;;;;;14.43;6.83;;;;;;;19.55;48.91;99917.58;1744811;80;21139;-40
2021/09/10 07:12:31;;;;;;;11.38;6.30;;;;;;;19.68;49.08;99909.00;1743756;82;20988;-40
2021/09/10 07:15:00;;;;;;;8.80;6.17;;;;;;;19.81;47.06;99912.80;1749753;80;20965;-40
2021/09/10 07:17:28;;;;;;;9.40;5.95;;;;;;;19.94;46.30;99919.34;1741574;80;20997;-41
2021/09/10 07:19:55;;;;;;;12.10;6.67;;;;;;;20.07;46.22;99915.48;1751028;82;21620;-40
2021/09/10 07:22:22;;;;;;;13.75;6.20;;;;;;;20.20;46.87;99915.14;1721504;82;21201;-41
2021/09/10 07:24:49;;;;;;;7.90;6.05;;;;;;;20.34;45.64;99917.75;1736841;82;20980;-41
2021/09/10 07:27:15;;;;;;;8.95;5.37;;;;;;;20.48;45.48;99920.92;1725621;82;21088;-40
2021/09/10 07:29:42;;;;;;;12.53;6.47;;;;;;;20.62;45.23;99916.61;1702662;82;21644;-41
2021/09/10 07:32:09;;;;;;;10.65;5.90;;;;;;;20.76;45.22;99918.42;1748497;80;21029;-40
2021/09/10 07:34:35;;;;;;;11.57;5.62;;;;;;;20.90;43.85;99918.81;1736656;82;21097;-41
2021/09/10 07:37:02;;;;;;;11.45;5.92;;;;;;;21.02;42.65;99924.53;1737622;80;21539;-40
2021/09/10 07:39:29;;;;;;;9.88;5.60;;;;;;;21.12;43.38;99920.84;1742444;81;21481;-40
2021/09/10 07:41:56;;;;;;;8.00;6.25;;;;;;;21.25;42.45;99921.84;1738120;80;21112;-41
2021/09/10 07:44:22;;;;;;;10.55;5.67;;;;;;;21.40;42.50;99925.75;1736358;82;21068;-41
2021/09/10 07:46:51;;;;;;;10.23;5.42;;;;;;;21.53;42.75;99917.08;1720223;82;21827;-41
2021/09/10 07:49:18;;;;;;;9.23;5.15;;;;;;;21.66;42.27;99922.17;1707371;84;21004;-41
2021/09/10 07:51:45;;;;;;;8.90;5.50;;;;;;;21.80;41.34;99919.16;1714258;82;21018;-41
2021/09/10 07:54:11;;;;;;;8.30;5.42;;;;;;;21.96;41.10;99922.66;1706192;82;20921;-41
2021/09/10 07:56:40;;;;;;;13.35;6.03;;;;;;;22.13;41.48;99915.22;1694134;82;21278;-41
2021/09/10 07:59:07;;;;;;;10.00;5.87;;;;;;;22.27;41.38;99921.88;1691258;84;21132;-41
2021/09/10 08:01:33;;;;;;;8.35;5.85;;;;;;;22.42;40.91;99924.51;1700408;83;21012;-41
2021/09/10 08:04:01;;;;;;;8.03;5.20;;;;;;;22.56;40.46;99916.55;1692020;82;21037;-41
2021/09/10 08:06:29;;;;;;;9.95;5.50;;;;;;;22.68;39.46;99918.05;1704319;82;20977;-41
2021/09/10 08:08:57;;;;;;;10.88;5.53;;;;;;;22.80;39.16;99917.41;1697101;84;21254;-41
2021/09/10 08:11:26;;;;;;;9.58;4.87;;;;;;;22.90;39.29;99907.31;1707798;82;21110;-41
2021/09/10 08:13:54;;;;;;;9.33;5.10;;;;;;;23.03;38.47;99903.29;1678950;85;21084;-41
2021/09/10 08:16:21;;;;;;;9.88;5.17;;;;;;;23.15;37.84;99909.51;1680193;84;21080;-41
2021/09/10 08:18:47;;;;;;;8.88;5.10;;;;;;;23.21;37.77;99905.02;1672695;84;21109;-41
2021/09/10 08:21:15;;;;;;;8.50;4.55;;;;;;;23.33;36.17;99908.50;1648919;86;21086;-41
2021/09/10 08:23:42;;;;;;;6.78;5.15;;;;;;;23.39;37.17;99900.61;1710176;82;21139;-41
2021/09/10 08:26:09;;;;;;;8.15;5.05;;;;;;;23.50;36.29;99902.37;1707345;82;20992;-41
2021/09/10 08:28:36;;;;;;;6.55;4.58;;;;;;;23.60;35.67;99894.41;1703045;84;20926;-41
2021/09/10 08:31:03;;;;;;;8.53;4.75;;;;;;;23.68;34.76;99889.63;1706685;82;21122;-41
2021/09/10 08:33:30;;;;;;;7.05;5.25;;;;;;;23.75;33.58;99894.98;1700728;84;21091;-41
2021/09/10 08:35:57;;;;;;;10.43;4.85;;;;;;;23.78;33.45;99889.95;1692791;84;21127;-41
2021/09/10 08:38:23;;;;;;;7.80;5.12;;;;;;;23.83;33.17;99892.80;1683713;84;21259;-41
2021/09/10 08:40:50;;;;;;;8.35;4.78;;;;;;;23.87;33.16;99894.11;1678893;85;21587;-41
2021/09/10 08:43:17;;;;;;;8.63;5.15;;;;;;;23.93;33.26;99886.20;1702895;84;20957;-41
2021/09/10 08:45:44;;;;;;;12.43;5.20;;;;;;;24.03;33.14;99885.73;1663733;84;21096;-41
2021/09/10 08:48:11;;;;;;;8.88;4.87;;;;;;;24.11;33.19;99879.55;1712319;82;21112;-41
2021/09/10 08:50:39;;;;;;;9.85;5.67;;;;;;;24.17;32.92;99880.61;1735390;82;20999;-41
2021/09/10 08:53:06;;;;;;;10.35;5.20;;;;;;;24.26;34.00;99878.58;1715353;82;21080;-41
2021/09/10 08:55:32;;;;;;;6.90;5.05;;;;;;;24.39;33.80;99873.86;1707422;84;21077;-41
2021/09/10 08:57:59;;;;;;;7.47;4.85;;;;;;;24.57;33.88;99869.94;1700152;84;21519;-41
2021/09/10 09:00:32;;;;;;;8.73;5.20;;;;;;;24.80;34.66;99876.38;1711103;82;21047;-41
2021/09/10 09:03:08;;;;;;;8.95;5.50;;;;;;;24.99;33.05;99861.54;1692899;84;21538;-41
2021/09/10 09:05:35;;;;;;;7.87;5.67;;;;;;;25.16;33.00;99859.42;1709207;83;21004;-41
2021/09/10 09:08:13;;;;;;;7.67;5.90;;;;;;;25.26;31.32;99857.69;1694629;84;21057;-41
2021/09/10 09:10:55;;;;;;;9.60;5.42;;;;;;;25.26;32.67;99858.30;1727415;82;21080;-41
2021/09/10 09:13:27;;;;;;;8.08;5.65;;;;;;;25.29;32.33;99852.62;1707608;82;21119;-41
2021/09/10 09:16:26;;;;;;;6.62;5.42;;;;;;;25.35;31.94;99853.62;1707977;82;20969;-41
2021/09/10 09:18:59;;;;;;;7.77;5.40;;;;;;;25.44;31.95;99856.48;1688760;82;21088;-41
2021/09/10 09:21:37;;;;;;;8.10;5.78;;;;;;;25.61;32.38;99849.42;1710698;82;21040;-41
2021/09/10 09:24:20;;;;;;;9.30;5.50;;;;;;;25.78;32.21;99848.00;1698624;83;21080;-41
2021/09/10 09:26:51;;;;;;;8.05;5.10;;;;;;;25.99;31.55;99846.47;1705673;84;21126;-41
2021/09/10 09:29:20;;;;;;;8.65;5.12;;;;;;;26.17;29.96;99846.59;1707390;82;21468;-41
2021/09/10 09:31:58;;;;;;;7.17;5.10;;;;;;;26.01;29.73;99818.99;1708678;82;21021;-41
2021/09/10 09:34:48;;;;;;;13.43;5.90;;;;;;;26.31;29.33;99851.03;1713580;83;21061;-41
2021/09/10 09:37:16;;;;;;;10.98;5.65;;;;;;;26.43;29.59;99841.68;1710858;82;21037;-41
2021/09/10 09:39:56;;;;;;;8.68;5.15;;;;;;;26.62;29.62;99841.31;1711622;82;21114;-41
2021/09/10 09:42:31;;;;;;;7.37;5.15;;;;;;;26.80;28.26;99842.77;1707080;84;21483;-41
2021/09/10 09:45:12;;;;;;;7.80;4.83;;;;;;;26.91;28.03;99845.78;1685139;84;20991;-41
2021/09/10 09:47:42;;;;;;;7.80;5.20;;;;;;;26.94;27.57;99840.67;1715719;82;21012;-43
2021/09/10 09:50:12;;;;;;;8.60;4.85;;;;;;;27.00;28.61;99839.63;1715426;82;21036;-41
2021/09/10 09:52:38;;;;;;;8.25;4.80;;;;;;;27.18;28.75;99833.31;1709619;82;24820;-41
2021/09/10 09:55:09;;;;;;;7.10;5.00;;;;;;;27.34;27.81;99833.66;1686056;84;21573;-41
2021/09/10 09:57:35;;;;;;;7.87;4.33;;;;;;;27.39;27.31;99828.25;1684894;84;20944;-42
2021/09/10 10:00:04;;;;;;;7.92;4.85;;;;;;;27.39;26.64;99828.25;1708914;82;21642;-42
2021/09/10 10:02:33;;;;;;;5.03;4.05;;;;;;;27.41;26.78;99824.98;1706506;84;21007;-42
2021/09/10 10:05:00;;;;;;;6.45;4.20;;;;;;;27.27;26.65;99796.36;1680191;84;21139;-41
2021/09/10 10:07:29;;;;;;;6.40;4.40;;;;;;;27.55;26.01;99829.98;1700201;82;20957;-41
2021/09/10 10:09:58;;;;;;;8.55;4.87;;;;;;;27.58;26.85;99823.50;1699078;84;20977;-41
2021/09/10 10:12:26;;;;;;;6.28;4.40;;;;;;;27.61;27.06;99820.55;1724269;82;20964;-41
2021/09/10 10:14:53;;;;;;;7.45;4.40;;;;;;;27.62;26.18;99819.31;1723463;82;21602;-41
2021/09/10 10:17:35;;;;;;;8.73;4.40;;;;;;;27.59;25.96;99822.27;1685571;83;21146;-41
2021/09/10 10:20:02;;;;;;;5.90;4.65;;;;;;;27.63;27.29;99824.27;1706136;82;21156;-41
2021/09/10 10:22:40;;;;;;;7.10;4.12;;;;;;;27.81;26.65;99822.86;1706627;82;21080;-41
2021/09/10 10:25:08;;;;;;;8.68;4.72;;;;;;;27.94;25.79;99815.10;1706112;82;21081;-41
2021/09/10 10:27:43;;;;;;;8.98;4.70;;;;;;;27.94;25.68;99814.33;1706586;82;21044;-42
2021/09/10 10:30:22;;;;;;;7.97;4.72;;;;;;;27.71;26.03;99784.33;1705462;82;21115;-42
2021/09/10 10:32:53;;;;;;;6.95;4.28;;;;;;;28.03;26.58;99810.16;1705481;82;20961;-42
2021/09/10 10:35:32;;;;;;;7.25;4.90;;;;;;;28.24;27.22;99807.80;1705282;84;21551;-42
2021/09/10 10:38:10;;;;;;;7.30;4.67;;;;;;;28.41;25.52;99804.03;1707371;84;21076;-42
2021/09/10 10:40:49;;;;;;;9.33;4.90;;;;;;;28.49;25.08;99805.23;1706912;82;21085;-42
2021/09/10 10:43:25;;;;;;;6.97;4.97;;;;;;;28.41;25.55;99794.27;1720834;82;21197;-42
2021/09/10 10:46:09;;;;;;;8.50;4.80;;;;;;;28.43;25.42;99791.77;1708769;82;20989;-42
2021/09/10 10:48:44;;;;;;;7.55;4.72;;;;;;;28.44;26.15;99784.95;1679122;85;21550;-42
2021/09/10 10:51:21;;;;;;;6.60;4.92;;;;;;;28.57;26.33;99789.69;1712043;82;21084;-42
2021/09/10 10:53:56;;;;;;;8.23;4.70;;;;;;;28.63;26.16;99789.21;1713937;82;21084;-41
2021/09/10 10:56:39;;;;;;;6.22;4.83;;;;;;;28.69;25.28;99790.12;1707734;84;21595;-42
2021/09/10 10:59:19;;;;;;;7.50;4.47;;;;;;;28.67;25.32;99793.21;1709043;82;21010;-42
2021/09/10 11:02:35;;;;;;;6.58;4.53;;;;;;;28.64;25.58;99789.98;1690894;82;20985;-41
2021/09/10 11:05:16;;;;;;;7.65;4.83;;;;;;;28.68;24.77;99787.17;1715568;82;21005;-42
2021/09/10 11:07:44;;;;;;;8.43;4.58;;;;;;;28.80;24.86;99779.24;1716504;82;21572;-41
2021/09/10 11:10:15;;;;;;;8.45;5.15;;;;;;;28.88;25.56;99777.64;1710012;82;21141;-42
2021/09/10 11:12:47;;;;;;;6.12;4.65;;;;;;;29.12;25.86;99769.88;1711286;82;20918;-42
2021/09/10 11:15:22;;;;;;;8.78;4.80;;;;;;;29.46;25.16;99761.58;1720250;82;21470;-42
2021/09/10 11:18:04;;;;;;;9.28;5.12;;;;;;;29.78;23.72;99762.82;1713302;82;21045;-42
2021/09/10 11:20:37;;;;;;;7.22;5.15;;;;;;;29.85;24.33;99763.08;1692986;84;22093;-41
2021/09/10 11:23:08;;;;;;;8.05;4.75;;;;;;;29.95;24.74;99761.77;1704208;82;21753;-41
2021/09/10 11:25:45;;;;;;;8.15;4.78;;;;;;;30.11;24.15;99759.86;1700836;82;21039;-41
2021/09/10 11:28:11;;;;;;;10.82;4.90;;;;;;;30.27;23.46;99758.59;1685959;83;20998;-41
2021/09/10 11:30:39;;;;;;;7.65;4.80;;;;;;;30.34;24.17;99760.23;1713820;83;21097;-41
2021/09/10 11:33:05;;;;;;;7.42;4.72;;;;;;;30.60;23.97;99768.14;1709014;82;21009;-41